sensor_id;sensor_type;location;lat;lon;timestamp;pressure;altitude;pressure_sealevel;temperature;humidity
6096;BME280;25081;42.698;23.298;2023-11-21T00:01:02;95117.41;;;3.44;96.01
6096;BME280;25081;42.698;23.298;2023-11-21T00:03:13;95120.62;;;3.55;95.71
6096;BME280;25081;42.698;23.298;2023-11-21T00:05:24;95118.59;;;3.61;95.30
6096;BME280;25081;42.698;23.298;2023-11-21T00:07:35;95121.63;;;3.54;95.56
6096;BME280;25081;42.698;23.298;2023-11-21T00:09:46;95119.78;;;3.58;95.81
6096;BME280;25081;42.698;23.298;2023-11-21T00:11:56;95122.80;;;3.51;95.71
6096;BME280;25081;42.698;23.298;2023-11-21T00:14:07;95120.60;;;3.59;95.73
6096;BME280;25081;42.698;23.298;2023-11-21T00:16:18;95117.98;;;3.55;95.55
6096;BME280;25081;42.698;23.298;2023-11-21T00:18:29;95120.69;;;3.47;95.86
6096;BME280;25081;42.698;23.298;2023-11-21T00:20:40;95121.19;;;3.46;95.71
6096;BME280;25081;42.698;23.298;2023-11-21T00:22:50;95127.62;;;3.48;95.51
6096;BME280;25081;42.698;23.298;2023-11-21T00:25:01;95120.53;;;3.48;95.51
6096;BME280;25081;42.698;23.298;2023-11-21T00:27:12;95121.85;;;3.48;95.71
6096;BME280;25081;42.698;23.298;2023-11-21T00:29:23;95121.19;;;3.46;96.24
6096;BME280;25081;42.698;23.298;2023-11-21T00:31:33;95082.83;;;3.29;96.06
6096;BME280;25081;42.698;23.298;2023-11-21T00:33:44;95106.31;;;3.53;96.02
6096;BME280;25081;42.698;23.298;2023-11-21T00:35:55;95104.47;;;3.58;95.50
6096;BME280;25081;42.698;23.298;2023-11-21T00:38:05;95114.03;;;3.55;95.55
6096;BME280;25081;42.698;23.298;2023-11-21T00:40:17;95113.20;;;3.58;95.52
6096;BME280;25081;42.698;23.298;2023-11-21T00:42:28;95113.01;;;3.60;95.33
6096;BME280;25081;42.698;23.298;2023-11-21T00:44:39;95113.83;;;3.60;95.22
6096;BME280;25081;42.698;23.298;2023-11-21T00:46:50;95112.94;;;3.68;94.80
6096;BME280;25081;42.698;23.298;2023-11-21T00:49:01;95108.30;;;3.70;94.19
6096;BME280;25081;42.698;23.298;2023-11-21T00:51:12;95114.09;;;3.65;94.67
6096;BME280;25081;42.698;23.298;2023-11-21T00:53:22;95119.22;;;3.48;94.93
6096;BME280;25081;42.698;23.298;2023-11-21T00:55:33;95118.73;;;3.44;95.34
6096;BME280;25081;42.698;23.298;2023-11-21T00:57:44;95109.56;;;3.40;95.46
6096;BME280;25081;42.698;23.298;2023-11-21T00:59:54;95108.56;;;3.41;95.36
6096;BME280;25081;42.698;23.298;2023-11-21T01:02:05;95101.66;;;3.40;95.50
6096;BME280;25081;42.698;23.298;2023-11-21T01:04:16;95100.67;;;3.37;95.52
6096;BME280;25081;42.698;23.298;2023-11-21T01:06:27;95100.77;;;3.29;95.96
6096;BME280;25081;42.698;23.298;2023-11-21T01:08:38;95103.91;;;3.25;96.05
6096;BME280;25081;42.698;23.298;2023-11-21T01:10:48;95108.11;;;3.15;96.31
6096;BME280;25081;42.698;23.298;2023-11-21T01:12:59;95100.64;;;3.23;96.26
6096;BME280;25081;42.698;23.298;2023-11-21T01:15:10;95095.56;;;3.21;96.25
6096;BME280;25081;42.698;23.298;2023-11-21T01:17:22;95094.63;;;3.14;96.52
6096;BME280;25081;42.698;23.298;2023-11-21T01:19:33;95091.85;;;3.11;96.76
6096;BME280;25081;42.698;23.298;2023-11-21T01:21:43;95095.81;;;3.07;96.99
6096;BME280;25081;42.698;23.298;2023-11-21T01:23:54;95102.48;;;2.99;96.58
6096;BME280;25081;42.698;23.298;2023-11-21T01:26:05;95109.84;;;3.04;97.16
6096;BME280;25081;42.698;23.298;2023-11-21T01:28:16;95103.08;;;3.05;96.99
6096;BME280;25081;42.698;23.298;2023-11-21T01:30:27;95098.36;;;3.01;96.88
6096;BME280;25081;42.698;23.298;2023-11-21T01:32:38;95107.27;;;2.96;96.93
6096;BME280;25081;42.698;23.298;2023-11-21T01:34:50;95096.04;;;3.02;97.18
6096;BME280;25081;42.698;23.298;2023-11-21T01:36:59;95093.41;;;2.98;97.13
6096;BME280;25081;42.698;23.298;2023-11-21T01:39:10;95102.99;;;2.95;97.42
6096;BME280;25081;42.698;23.298;2023-11-21T01:41:20;95108.45;;;2.89;96.98
6096;BME280;25081;42.698;23.298;2023-11-21T01:43:31;95114.02;;;2.71;97.83
6096;BME280;25081;42.698;23.298;2023-11-21T01:45:41;95106.48;;;2.64;98.40
6096;BME280;25081;42.698;23.298;2023-11-21T01:47:52;95105.17;;;2.60;98.48
6096;BME280;25081;42.698;23.298;2023-11-21T01:50:03;95096.95;;;2.63;98.81
6096;BME280;25081;42.698;23.298;2023-11-21T01:52:14;95089.88;;;2.64;98.71
6096;BME280;25081;42.698;23.298;2023-11-21T01:54:25;95090.69;;;2.64;98.54
6096;BME280;25081;42.698;23.298;2023-11-21T01:56:35;95093.11;;;2.70;98.53
6096;BME280;25081;42.698;23.298;2023-11-21T01:58:46;95098.09;;;2.65;98.16
6096;BME280;25081;42.698;23.298;2023-11-21T02:00:57;95106.02;;;2.56;98.35
6096;BME280;25081;42.698;23.298;2023-11-21T02:03:07;95107.87;;;2.52;98.97
6096;BME280;25081;42.698;23.298;2023-11-21T02:05:18;95106.34;;;2.57;99.39
6096;BME280;25081;42.698;23.298;2023-11-21T02:07:28;95100.91;;;2.59;98.98
6096;BME280;25081;42.698;23.298;2023-11-21T02:09:39;95100.22;;;2.65;98.69
6096;BME280;25081;42.698;23.298;2023-11-21T02:11:50;95105.66;;;2.64;98.31
6096;BME280;25081;42.698;23.298;2023-11-21T02:14:01;95099.05;;;2.68;98.09
6096;BME280;25081;42.698;23.298;2023-11-21T02:16:11;95102.39;;;2.62;98.09
6096;BME280;25081;42.698;23.298;2023-11-21T02:18:22;95103.95;;;2.75;98.23
6096;BME280;25081;42.698;23.298;2023-11-21T02:20:33;95100.31;;;2.76;97.82
6096;BME280;25081;42.698;23.298;2023-11-21T02:24:55;95094.19;;;2.56;98.67
6096;BME280;25081;42.698;23.298;2023-11-21T02:27:06;95095.28;;;2.66;98.50
6096;BME280;25081;42.698;23.298;2023-11-21T02:29:17;95094.78;;;2.67;98.22
6096;BME280;25081;42.698;23.298;2023-11-21T02:31:27;95093.82;;;2.64;98.38
6096;BME280;25081;42.698;23.298;2023-11-21T02:33:38;95092.69;;;2.58;98.41
6096;BME280;25081;42.698;23.298;2023-11-21T02:35:49;95088.88;;;2.65;98.34
6096;BME280;25081;42.698;23.298;2023-11-21T02:38:00;95092.02;;;2.60;98.33
6096;BME280;25081;42.698;23.298;2023-11-21T02:40:12;95093.19;;;2.57;98.08
6096;BME280;25081;42.698;23.298;2023-11-21T02:42:22;95090.55;;;2.57;98.04
6096;BME280;25081;42.698;23.298;2023-11-21T02:44:33;95093.05;;;2.51;97.90
6096;BME280;25081;42.698;23.298;2023-11-21T02:46:45;95094.72;;;2.48;98.24
6096;BME280;25081;42.698;23.298;2023-11-21T02:48:56;95091.91;;;2.49;98.64
6096;BME280;25081;42.698;23.298;2023-11-21T02:51:06;95089.14;;;2.47;98.44
6096;BME280;25081;42.698;23.298;2023-11-21T02:53:17;95090.98;;;2.42;98.63
6096;BME280;25081;42.698;23.298;2023-11-21T02:55:28;95089.39;;;2.33;98.90
6096;BME280;25081;42.698;23.298;2023-11-21T02:57:39;95094.55;;;2.49;98.93
6096;BME280;25081;42.698;23.298;2023-11-21T02:59:49;95092.34;;;2.34;98.74
6096;BME280;25081;42.698;23.298;2023-11-21T03:02:00;95085.27;;;2.35;98.80
6096;BME280;25081;42.698;23.298;2023-11-21T03:04:11;95088.18;;;2.44;98.43
6096;BME280;25081;42.698;23.298;2023-11-21T03:06:22;95085.62;;;2.27;98.50
6096;BME280;25081;42.698;23.298;2023-11-21T03:08:33;95083.34;;;2.24;98.91
6096;BME280;25081;42.698;23.298;2023-11-21T03:10:43;95084.80;;;2.27;98.33
6096;BME280;25081;42.698;23.298;2023-11-21T03:12:54;95087.28;;;2.24;98.56
6096;BME280;25081;42.698;23.298;2023-11-21T03:15:07;95090.41;;;2.24;98.70
6096;BME280;25081;42.698;23.298;2023-11-21T03:17:18;95090.73;;;2.25;98.65
6096;BME280;25081;42.698;23.298;2023-11-21T03:19:28;95085.13;;;2.28;98.64
6096;BME280;25081;42.698;23.298;2023-11-21T03:21:39;95087.04;;;2.42;98.60
6096;BME280;25081;42.698;23.298;2023-11-21T03:23:50;95093.30;;;2.37;98.24
6096;BME280;25081;42.698;23.298;2023-11-21T03:26:01;95100.72;;;2.34;98.36
6096;BME280;25081;42.698;23.298;2023-11-21T03:28:11;95099.70;;;2.39;98.53
6096;BME280;25081;42.698;23.298;2023-11-21T03:30:22;95093.97;;;2.35;98.73
6096;BME280;25081;42.698;23.298;2023-11-21T03:32:34;95103.18;;;2.35;98.90
6096;BME280;25081;42.698;23.298;2023-11-21T03:34:55;95100.84;;;2.40;98.78
6096;BME280;25081;42.698;23.298;2023-11-21T03:37:06;95095.89;;;2.41;98.82
6096;BME280;25081;42.698;23.298;2023-11-21T03:39:17;95097.74;;;2.37;99.20
6096;BME280;25081;42.698;23.298;2023-11-21T03:41:27;95096.89;;;2.40;98.98
6096;BME280;25081;42.698;23.298;2023-11-21T03:43:38;95089.00;;;2.44;98.99
6096;BME280;25081;42.698;23.298;2023-11-21T03:45:48;95093.83;;;2.33;98.81
6096;BME280;25081;42.698;23.298;2023-11-21T03:47:59;95082.92;;;2.40;99.25
6096;BME280;25081;42.698;23.298;2023-11-21T03:50:10;95077.59;;;2.21;99.71
6096;BME280;25081;42.698;23.298;2023-11-21T03:52:21;95079.55;;;2.27;99.93
6096;BME280;25081;42.698;23.298;2023-11-21T03:54:31;95079.51;;;2.31;100.00
6096;BME280;25081;42.698;23.298;2023-11-21T03:56:41;95072.72;;;2.41;100.00
6096;BME280;25081;42.698;23.298;2023-11-21T03:58:52;95072.00;;;2.51;99.80
6096;BME280;25081;42.698;23.298;2023-11-21T04:01:03;95067.59;;;2.51;99.05
6096;BME280;25081;42.698;23.298;2023-11-21T04:03:13;95078.58;;;2.51;99.26
6096;BME280;25081;42.698;23.298;2023-11-21T04:05:24;95073.45;;;2.57;99.09
6096;BME280;25081;42.698;23.298;2023-11-21T04:07:34;95069.19;;;2.56;98.73
6096;BME280;25081;42.698;23.298;2023-11-21T04:09:45;95060.66;;;2.50;98.77
6096;BME280;25081;42.698;23.298;2023-11-21T04:11:55;95063.97;;;2.48;98.89
6096;BME280;25081;42.698;23.298;2023-11-21T04:14:06;95062.11;;;2.57;98.70
6096;BME280;25081;42.698;23.298;2023-11-21T04:16:16;95075.41;;;2.64;98.95
6096;BME280;25081;42.698;23.298;2023-11-21T04:18:27;95063.02;;;2.68;98.63
6096;BME280;25081;42.698;23.298;2023-11-21T04:20:37;95061.52;;;2.70;98.28
6096;BME280;25081;42.698;23.298;2023-11-21T04:22:48;95067.97;;;2.67;98.64
6096;BME280;25081;42.698;23.298;2023-11-21T04:24:58;95070.91;;;2.68;98.57
6096;BME280;25081;42.698;23.298;2023-11-21T04:27:09;95069.95;;;2.65;98.41
6096;BME280;25081;42.698;23.298;2023-11-21T04:29:20;95068.96;;;2.66;98.21
6096;BME280;25081;42.698;23.298;2023-11-21T04:31:31;95071.05;;;2.75;97.83
6096;BME280;25081;42.698;23.298;2023-11-21T04:33:41;95075.67;;;2.73;97.78
6096;BME280;25081;42.698;23.298;2023-11-21T04:35:52;95071.41;;;2.68;97.98
6096;BME280;25081;42.698;23.298;2023-11-21T04:38:03;95068.19;;;2.57;98.19
6096;BME280;25081;42.698;23.298;2023-11-21T04:40:14;95072.85;;;2.51;98.39
6096;BME280;25081;42.698;23.298;2023-11-21T04:42:24;95070.55;;;2.48;98.35
6096;BME280;25081;42.698;23.298;2023-11-21T04:44:35;95070.27;;;2.39;98.57
6096;BME280;25081;42.698;23.298;2023-11-21T04:46:45;95077.83;;;2.42;98.67
6096;BME280;25081;42.698;23.298;2023-11-21T04:48:56;95073.31;;;2.51;98.77
6096;BME280;25081;42.698;23.298;2023-11-21T04:51:07;95074.20;;;2.43;98.50
6096;BME280;25081;42.698;23.298;2023-11-21T04:53:17;95080.29;;;2.44;98.97
6096;BME280;25081;42.698;23.298;2023-11-21T04:55:28;95081.60;;;2.44;98.62
6096;BME280;25081;42.698;23.298;2023-11-21T04:57:39;95083.73;;;2.44;98.47
6096;BME280;25081;42.698;23.298;2023-11-21T04:59:51;95085.02;;;2.48;98.53
6096;BME280;25081;42.698;23.298;2023-11-21T05:02:01;95073.67;;;2.52;98.44
6096;BME280;25081;42.698;23.298;2023-11-21T05:04:12;95083.66;;;2.56;98.12
6096;BME280;25081;42.698;23.298;2023-11-21T05:06:22;95075.05;;;2.67;97.66
6096;BME280;25081;42.698;23.298;2023-11-21T05:08:33;95082.80;;;2.64;97.54
6096;BME280;25081;42.698;23.298;2023-11-21T05:10:44;95077.53;;;2.64;97.50
6096;BME280;25081;42.698;23.298;2023-11-21T05:12:55;95081.12;;;2.67;97.37
6096;BME280;25081;42.698;23.298;2023-11-21T05:15:07;95066.88;;;2.57;97.67
6096;BME280;25081;42.698;23.298;2023-11-21T05:17:18;95062.61;;;2.56;98.03
6096;BME280;25081;42.698;23.298;2023-11-21T05:19:29;95067.19;;;2.63;98.09
6096;BME280;25081;42.698;23.298;2023-11-21T05:21:39;95071.36;;;2.49;97.94
6096;BME280;25081;42.698;23.298;2023-11-21T05:23:50;95065.61;;;2.49;98.46
6096;BME280;25081;42.698;23.298;2023-11-21T05:26:00;95068.55;;;2.50;99.13
6096;BME280;25081;42.698;23.298;2023-11-21T05:28:11;95072.17;;;2.53;98.75
6096;BME280;25081;42.698;23.298;2023-11-21T05:30:22;95078.53;;;2.63;98.64
6096;BME280;25081;42.698;23.298;2023-11-21T05:32:32;95078.98;;;2.67;98.20
6096;BME280;25081;42.698;23.298;2023-11-21T05:34:43;95088.69;;;2.70;98.09
6096;BME280;25081;42.698;23.298;2023-11-21T05:36:53;95084.06;;;2.72;98.02
6096;BME280;25081;42.698;23.298;2023-11-21T05:39:04;95081.44;;;2.68;97.64
6096;BME280;25081;42.698;23.298;2023-11-21T05:41:16;95084.84;;;2.77;97.65
6096;BME280;25081;42.698;23.298;2023-11-21T05:43:26;95084.34;;;2.81;97.35
6096;BME280;25081;42.698;23.298;2023-11-21T05:45:37;95082.80;;;2.87;96.99
6096;BME280;25081;42.698;23.298;2023-11-21T05:47:47;95089.74;;;2.84;96.73
6096;BME280;25081;42.698;23.298;2023-11-21T05:49:58;95084.94;;;2.87;96.65
6096;BME280;25081;42.698;23.298;2023-11-21T05:52:08;95082.62;;;2.88;96.54
6096;BME280;25081;42.698;23.298;2023-11-21T05:54:19;95088.00;;;2.99;96.17
6096;BME280;25081;42.698;23.298;2023-11-21T05:56:30;95079.41;;;2.78;95.74
6096;BME280;25081;42.698;23.298;2023-11-21T05:58:40;95079.57;;;2.81;96.46
6096;BME280;25081;42.698;23.298;2023-11-21T06:00:51;95081.06;;;3.02;95.84
6096;BME280;25081;42.698;23.298;2023-11-21T06:03:01;95080.18;;;3.10;95.14
6096;BME280;25081;42.698;23.298;2023-11-21T06:05:12;95076.86;;;3.12;95.50
6096;BME280;25081;42.698;23.298;2023-11-21T06:07:23;95076.00;;;3.15;95.08
6096;BME280;25081;42.698;23.298;2023-11-21T06:09:33;95075.26;;;3.26;94.61
6096;BME280;25081;42.698;23.298;2023-11-21T06:11:44;95086.69;;;3.37;93.94
6096;BME280;25081;42.698;23.298;2023-11-21T06:13:54;95083.33;;;3.28;94.03
6096;BME280;25081;42.698;23.298;2023-11-21T06:16:07;95085.96;;;3.28;94.36
6096;BME280;25081;42.698;23.298;2023-11-21T06:18:17;95086.23;;;3.33;94.13
6096;BME280;25081;42.698;23.298;2023-11-21T06:20:28;95091.45;;;3.37;93.95
6096;BME280;25081;42.698;23.298;2023-11-21T06:22:39;95082.52;;;3.61;93.33
6096;BME280;25081;42.698;23.298;2023-11-21T06:24:49;95094.01;;;3.64;92.62
6096;BME280;25081;42.698;23.298;2023-11-21T06:27:00;95086.02;;;3.58;92.22
6096;BME280;25081;42.698;23.298;2023-11-21T06:29:10;95097.94;;;3.83;91.63
6096;BME280;25081;42.698;23.298;2023-11-21T06:31:21;95098.31;;;3.80;91.10
6096;BME280;25081;42.698;23.298;2023-11-21T06:33:32;95095.28;;;3.87;90.47
6096;BME280;25081;42.698;23.298;2023-11-21T06:35:42;95102.31;;;3.91;91.29
6096;BME280;25081;42.698;23.298;2023-11-21T06:37:53;95105.63;;;4.03;90.37
6096;BME280;25081;42.698;23.298;2023-11-21T06:40:04;95103.63;;;4.20;89.29
6096;BME280;25081;42.698;23.298;2023-11-21T06:42:14;95106.08;;;4.22;88.25
6096;BME280;25081;42.698;23.298;2023-11-21T06:44:25;95115.55;;;4.31;88.64
6096;BME280;25081;42.698;23.298;2023-11-21T06:46:35;95113.78;;;4.53;87.73
6096;BME280;25081;42.698;23.298;2023-11-21T06:48:46;95110.55;;;4.72;86.94
6096;BME280;25081;42.698;23.298;2023-11-21T06:50:57;95107.47;;;5.26;84.49
6096;BME280;25081;42.698;23.298;2023-11-21T06:53:07;95107.74;;;6.09;81.32
6096;BME280;25081;42.698;23.298;2023-11-21T06:55:18;95099.84;;;7.24;77.94
6096;BME280;25081;42.698;23.298;2023-11-21T06:57:28;95104.83;;;8.16;72.74
6096;BME280;25081;42.698;23.298;2023-11-21T06:59:39;95095.95;;;8.62;68.94
6096;BME280;25081;42.698;23.298;2023-11-21T07:01:50;95101.55;;;8.92;67.78
6096;BME280;25081;42.698;23.298;2023-11-21T07:04:00;95098.83;;;8.82;67.81
6096;BME280;25081;42.698;23.298;2023-11-21T07:06:11;95104.23;;;8.85;68.33
6096;BME280;25081;42.698;23.298;2023-11-21T07:08:21;95108.98;;;8.34;69.21
6096;BME280;25081;42.698;23.298;2023-11-21T07:10:32;95094.80;;;8.24;70.28
6096;BME280;25081;42.698;23.298;2023-11-21T07:12:42;95102.31;;;7.65;71.26
6096;BME280;25081;42.698;23.298;2023-11-21T07:14:53;95096.64;;;8.17;73.06
6096;BME280;25081;42.698;23.298;2023-11-21T07:17:04;95084.17;;;8.31;70.46
6096;BME280;25081;42.698;23.298;2023-11-21T07:19:14;95089.47;;;8.38;69.29
6096;BME280;25081;42.698;23.298;2023-11-21T07:21:25;95083.85;;;7.55;71.66
6096;BME280;25081;42.698;23.298;2023-11-21T07:23:35;95092.94;;;7.63;72.57
6096;BME280;25081;42.698;23.298;2023-11-21T07:25:46;95091.64;;;7.06;73.70
6096;BME280;25081;42.698;23.298;2023-11-21T07:27:56;95088.12;;;7.69;73.17
6096;BME280;25081;42.698;23.298;2023-11-21T07:30:09;95098.13;;;7.60;72.81
6096;BME280;25081;42.698;23.298;2023-11-21T07:32:19;95094.56;;;8.46;70.74
6096;BME280;25081;42.698;23.298;2023-11-21T07:34:30;95091.87;;;9.35;67.75
6096;BME280;25081;42.698;23.298;2023-11-21T07:36:41;95095.22;;;8.86;67.91
6096;BME280;25081;42.698;23.298;2023-11-21T07:38:51;95098.18;;;8.87;68.10
6096;BME280;25081;42.698;23.298;2023-11-21T07:41:02;95101.20;;;8.75;68.29
6096;BME280;25081;42.698;23.298;2023-11-21T07:43:12;95086.23;;;9.57;66.62
6096;BME280;25081;42.698;23.298;2023-11-21T07:45:22;95082.59;;;10.44;64.64
6096;BME280;25081;42.698;23.298;2023-11-21T07:47:33;95086.05;;;10.91;61.56
6096;BME280;25081;42.698;23.298;2023-11-21T07:49:43;95083.63;;;11.40;59.97
6096;BME280;25081;42.698;23.298;2023-11-21T07:51:54;95080.28;;;10.57;61.16
6096;BME280;25081;42.698;23.298;2023-11-21T07:54:05;95084.59;;;9.56;64.76
6096;BME280;25081;42.698;23.298;2023-11-21T07:56:16;95082.81;;;8.73;67.33
6096;BME280;25081;42.698;23.298;2023-11-21T07:58:26;95085.63;;;9.07;67.74
6096;BME280;25081;42.698;23.298;2023-11-21T08:00:36;95079.53;;;9.48;66.18
6096;BME280;25081;42.698;23.298;2023-11-21T08:02:47;95076.86;;;9.16;66.68
6096;BME280;25081;42.698;23.298;2023-11-21T08:04:58;95079.30;;;9.02;68.19
6096;BME280;25081;42.698;23.298;2023-11-21T08:07:08;95072.72;;;9.27;67.16
6096;BME280;25081;42.698;23.298;2023-11-21T08:09:19;95072.63;;;8.41;69.46
6096;BME280;25081;42.698;23.298;2023-11-21T08:11:29;95062.94;;;8.18;71.53
6096;BME280;25081;42.698;23.298;2023-11-21T08:13:40;95064.64;;;8.70;70.23
6096;BME280;25081;42.698;23.298;2023-11-21T08:15:50;95073.09;;;8.99;68.12
6096;BME280;25081;42.698;23.298;2023-11-21T08:18:01;95063.48;;;9.70;67.15
6096;BME280;25081;42.698;23.298;2023-11-21T08:20:13;95067.41;;;10.36;65.05
6096;BME280;25081;42.698;23.298;2023-11-21T08:22:23;95061.33;;;10.65;63.26
6096;BME280;25081;42.698;23.298;2023-11-21T08:24:34;95063.95;;;11.02;61.95
6096;BME280;25081;42.698;23.298;2023-11-21T08:26:45;95058.97;;;11.26;60.87
6096;BME280;25081;42.698;23.298;2023-11-21T08:28:55;95064.92;;;10.80;62.62
6096;BME280;25081;42.698;23.298;2023-11-21T08:31:06;95052.22;;;11.33;60.86
6096;BME280;25081;42.698;23.298;2023-11-21T08:33:17;95058.06;;;11.53;59.64
6096;BME280;25081;42.698;23.298;2023-11-21T08:35:27;95065.08;;;11.57;59.69
6096;BME280;25081;42.698;23.298;2023-11-21T08:37:38;95051.94;;;12.20;58.26
6096;BME280;25081;42.698;23.298;2023-11-21T08:39:49;95060.73;;;10.81;61.15
6096;BME280;25081;42.698;23.298;2023-11-21T08:41:59;95063.44;;;10.93;61.88
6096;BME280;25081;42.698;23.298;2023-11-21T08:44:10;95060.23;;;11.03;60.84
6096;BME280;25081;42.698;23.298;2023-11-21T08:46:20;95056.36;;;11.29;60.10
6096;BME280;25081;42.698;23.298;2023-11-21T08:48:31;95054.13;;;11.67;59.24
6096;BME280;25081;42.698;23.298;2023-11-21T08:50:41;95052.53;;;11.25;59.21
6096;BME280;25081;42.698;23.298;2023-11-21T08:52:52;95054.06;;;11.11;59.34
6096;BME280;25081;42.698;23.298;2023-11-21T08:55:03;95046.67;;;10.56;61.86
6096;BME280;25081;42.698;23.298;2023-11-21T08:57:13;95039.55;;;11.49;60.03
6096;BME280;25081;42.698;23.298;2023-11-21T08:59:24;95034.80;;;12.45;57.14
6096;BME280;25081;42.698;23.298;2023-11-21T09:01:35;95033.66;;;13.21;54.41
6096;BME280;25081;42.698;23.298;2023-11-21T09:03:45;95025.59;;;13.33;54.02
6096;BME280;25081;42.698;23.298;2023-11-21T09:05:56;95025.23;;;13.01;54.22
6096;BME280;25081;42.698;23.298;2023-11-21T09:08:06;95012.97;;;11.54;57.35
6096;BME280;25081;42.698;23.298;2023-11-21T09:10:17;95005.72;;;11.20;60.04
6096;BME280;25081;42.698;23.298;2023-11-21T09:12:27;95010.64;;;10.83;61.45
6096;BME280;25081;42.698;23.298;2023-11-21T09:14:38;95000.02;;;10.19;62.28
6096;BME280;25081;42.698;23.298;2023-11-21T09:16:49;94994.13;;;10.26;62.40
6096;BME280;25081;42.698;23.298;2023-11-21T09:19:00;94992.47;;;10.07;64.71
6096;BME280;25081;42.698;23.298;2023-11-21T09:21:10;94986.98;;;10.20;63.49
6096;BME280;25081;42.698;23.298;2023-11-21T09:23:21;94982.95;;;9.74;64.39
6096;BME280;25081;42.698;23.298;2023-11-21T09:25:31;94982.04;;;9.53;66.47
6096;BME280;25081;42.698;23.298;2023-11-21T09:27:42;94975.99;;;9.64;65.45
6096;BME280;25081;42.698;23.298;2023-11-21T09:29:52;94982.06;;;9.62;66.12
6096;BME280;25081;42.698;23.298;2023-11-21T09:32:03;94963.08;;;9.68;65.49
6096;BME280;25081;42.698;23.298;2023-11-21T09:34:14;94939.41;;;9.60;65.61
6096;BME280;25081;42.698;23.298;2023-11-21T09:36:25;94942.81;;;10.40;63.56
6096;BME280;25081;42.698;23.298;2023-11-21T09:38:35;94950.73;;;9.92;64.19
6096;BME280;25081;42.698;23.298;2023-11-21T09:40:46;94941.28;;;10.05;64.59
6096;BME280;25081;42.698;23.298;2023-11-21T09:42:57;94931.24;;;11.65;61.42
6096;BME280;25081;42.698;23.298;2023-11-21T09:45:11;94926.80;;;12.06;57.62
6096;BME280;25081;42.698;23.298;2023-11-21T09:47:19;94932.48;;;12.21;57.66
6096;BME280;25081;42.698;23.298;2023-11-21T09:49:30;94918.34;;;12.09;57.14
6096;BME280;25081;42.698;23.298;2023-11-21T09:51:42;94914.05;;;12.22;57.94
6096;BME280;25081;42.698;23.298;2023-11-21T09:53:51;94902.22;;;11.92;57.83
6096;BME280;25081;42.698;23.298;2023-11-21T09:56:02;94894.20;;;10.17;62.67
6096;BME280;25081;42.698;23.298;2023-11-21T09:58:14;94886.75;;;9.43;66.05
6096;BME280;25081;42.698;23.298;2023-11-21T10:00:24;94885.95;;;9.98;65.25
6096;BME280;25081;42.698;23.298;2023-11-21T10:02:35;94881.28;;;11.28;62.13
6096;BME280;25081;42.698;23.298;2023-11-21T10:04:45;94884.18;;;11.26;61.44
6096;BME280;25081;42.698;23.298;2023-11-21T10:06:56;94890.49;;;11.58;60.74
6096;BME280;25081;42.698;23.298;2023-11-21T10:09:06;94887.89;;;11.84;59.45
6096;BME280;25081;42.698;23.298;2023-11-21T10:11:18;94884.51;;;10.62;62.76
6096;BME280;25081;42.698;23.298;2023-11-21T10:13:28;94882.55;;;9.72;66.65
6096;BME280;25081;42.698;23.298;2023-11-21T10:15:39;94876.50;;;10.83;63.13
6096;BME280;25081;42.698;23.298;2023-11-21T10:17:50;94880.55;;;11.30;61.22
6096;BME280;25081;42.698;23.298;2023-11-21T10:20:00;94868.56;;;11.56;60.54
6096;BME280;25081;42.698;23.298;2023-11-21T10:22:11;94868.59;;;11.93;59.80
6096;BME280;25081;42.698;23.298;2023-11-21T10:24:21;94860.19;;;12.27;58.22
6096;BME280;25081;42.698;23.298;2023-11-21T10:26:32;94856.89;;;11.71;60.00
6096;BME280;25081;42.698;23.298;2023-11-21T10:28:42;94855.54;;;12.23;58.16
6096;BME280;25081;42.698;23.298;2023-11-21T10:30:53;94857.42;;;11.47;59.36
6096;BME280;25081;42.698;23.298;2023-11-21T10:33:04;94853.86;;;11.30;60.50
6096;BME280;25081;42.698;23.298;2023-11-21T10:35:14;94852.05;;;11.33;61.24
6096;BME280;25081;42.698;23.298;2023-11-21T10:37:25;94854.83;;;10.70;62.23
6096;BME280;25081;42.698;23.298;2023-11-21T10:39:36;94844.27;;;10.52;63.06
6096;BME280;25081;42.698;23.298;2023-11-21T10:41:47;94843.06;;;10.69;62.76
6096;BME280;25081;42.698;23.298;2023-11-21T10:43:58;94839.81;;;11.23;61.74
6096;BME280;25081;42.698;23.298;2023-11-21T10:46:08;94838.69;;;11.44;60.62
6096;BME280;25081;42.698;23.298;2023-11-21T10:48:18;94840.95;;;11.76;58.92
6096;BME280;25081;42.698;23.298;2023-11-21T10:50:29;94833.42;;;11.85;59.08
6096;BME280;25081;42.698;23.298;2023-11-21T10:52:40;94834.95;;;11.57;59.19
6096;BME280;25081;42.698;23.298;2023-11-21T10:54:51;94838.26;;;11.01;61.02
6096;BME280;25081;42.698;23.298;2023-11-21T10:57:01;94826.27;;;10.80;61.43
6096;BME280;25081;42.698;23.298;2023-11-21T10:59:12;94821.06;;;10.73;61.16
6096;BME280;25081;42.698;23.298;2023-11-21T11:01:23;94822.51;;;10.90;61.28
6096;BME280;25081;42.698;23.298;2023-11-21T11:03:34;94823.11;;;10.59;60.80
6096;BME280;25081;42.698;23.298;2023-11-21T11:05:45;94818.98;;;10.43;62.33
6096;BME280;25081;42.698;23.298;2023-11-21T11:07:59;94812.39;;;10.57;61.67
6096;BME280;25081;42.698;23.298;2023-11-21T11:10:12;94812.44;;;9.88;63.39
6096;BME280;25081;42.698;23.298;2023-11-21T11:12:23;94810.41;;;10.01;63.82
6096;BME280;25081;42.698;23.298;2023-11-21T11:14:34;94809.84;;;9.90;64.48
6096;BME280;25081;42.698;23.298;2023-11-21T11:16:45;94810.78;;;9.66;64.61
6096;BME280;25081;42.698;23.298;2023-11-21T11:18:55;94810.92;;;9.43;65.34
6096;BME280;25081;42.698;23.298;2023-11-21T11:21:11;94798.43;;;9.44;65.71
6096;BME280;25081;42.698;23.298;2023-11-21T11:23:30;94792.52;;;9.99;64.77
6096;BME280;25081;42.698;23.298;2023-11-21T11:25:58;94786.72;;;10.32;63.12
6096;BME280;25081;42.698;23.298;2023-11-21T11:28:08;94779.22;;;10.41;63.52
6096;BME280;25081;42.698;23.298;2023-11-21T11:30:21;94779.08;;;10.69;62.38
6096;BME280;25081;42.698;23.298;2023-11-21T11:32:43;94775.22;;;10.74;62.45
6096;BME280;25081;42.698;23.298;2023-11-21T11:34:45;94770.27;;;10.80;61.63
6096;BME280;25081;42.698;23.298;2023-11-21T11:36:58;94761.65;;;10.75;61.85
6096;BME280;25081;42.698;23.298;2023-11-21T11:39:29;94761.47;;;10.79;61.91
6096;BME280;25081;42.698;23.298;2023-11-21T11:41:40;94771.13;;;10.59;62.09